Time;durP1;ratioP1;P1;durP2;ratioP2;P2;SDS_P1;SDS_P2;PMS_P1;PMS_P2;Temp;Humidity;BMP_temperature;BMP_pressure;BME280_temperature;BME280_humidity;BME280_pressure;Samples;Min_cycle;Max_cycle;Signal;HPM_P1;HPM_P2
2021/05/03 00:01:47;;;;;;;31.52;20.25;;;3.50;99.90;;;;;;4992722;28;20499;-73
2021/05/03 00:04:13;;;;;;;37.05;21.65;;;3.60;99.90;;;;;;4991822;28;20033;-72
2021/05/03 00:06:38;;;;;;;33.60;20.70;;;3.50;99.90;;;;;;4992525;28;20030;-73
2021/05/03 00:09:05;;;;;;;34.97;21.65;;;3.50;99.90;;;;;;4992824;28;20035;-73
2021/05/03 00:11:31;;;;;;;34.13;21.30;;;3.40;99.90;;;;;;4992146;28;20018;-73
2021/05/03 00:13:57;;;;;;;35.38;22.00;;;3.40;99.90;;;;;;4991575;28;20034;-73
2021/05/03 00:16:23;;;;;;;35.90;21.42;;;3.40;99.90;;;;;;4992580;28;20384;-71
2021/05/03 00:18:49;;;;;;;32.92;21.30;;;3.40;99.90;;;;;;4992497;28;20029;-72
2021/05/03 00:21:14;;;;;;;32.90;20.02;;;3.30;99.90;;;;;;4992620;28;20100;-72
2021/05/03 00:23:40;;;;;;;28.52;18.83;;;3.40;99.90;;;;;;4992137;28;20044;-73
2021/05/03 00:26:07;;;;;;;31.83;19.40;;;3.30;99.90;;;;;;4992633;28;20485;-72
2021/05/03 00:28:34;;;;;;;36.85;20.85;;;3.40;99.90;;;;;;4991985;28;20552;-72
2021/05/03 00:30:59;;;;;;;31.10;18.83;;;3.40;99.90;;;;;;4992589;28;20030;-72
2021/05/03 00:33:25;;;;;;;35.20;20.35;;;3.30;99.90;;;;;;4974020;28;20443;-73
2021/05/03 00:35:50;;;;;;;36.72;22.83;;;3.30;99.90;;;;;;4992346;28;20484;-73
2021/05/03 00:38:16;;;;;;;39.05;22.65;;;3.30;99.90;;;;;;4992043;28;20030;-73
2021/05/03 00:40:42;;;;;;;38.13;22.25;;;3.30;99.90;;;;;;4992183;28;20026;-72
2021/05/03 00:43:09;;;;;;;39.45;23.83;;;3.20;99.90;;;;;;4991456;28;20022;-72
2021/05/03 00:45:34;;;;;;;43.80;24.23;;;3.20;99.90;;;;;;4991931;28;20034;-72
2021/05/03 00:48:00;;;;;;;34.55;21.00;;;3.10;99.90;;;;;;4992198;28;20027;-71
2021/05/03 00:50:29;;;;;;;37.15;22.92;;;3.00;99.90;;;;;;4992198;28;20105;-71
2021/05/03 00:52:55;;;;;;;36.05;21.58;;;3.00;99.90;;;;;;4996964;28;20142;-72
2021/05/03 00:55:23;;;;;;;45.65;24.17;;;3.10;99.90;;;;;;4999480;28;20376;-72
2021/05/03 00:57:49;;;;;;;40.47;23.25;;;3.10;99.90;;;;;;4993374;28;20090;-72
2021/05/03 01:00:15;;;;;;;43.55;25.33;;;3.00;99.90;;;;;;4994227;28;20358;-71
2021/05/03 01:02:41;;;;;;;42.30;24.95;;;2.90;99.90;;;;;;4997923;28;20026;-72
2021/05/03 01:05:08;;;;;;;45.35;24.45;;;2.90;99.90;;;;;;4998497;28;20389;-71
2021/05/03 01:07:33;;;;;;;40.80;24.30;;;2.90;99.90;;;;;;4998862;28;20062;-73
2021/05/03 01:09:59;;;;;;;43.20;24.10;;;2.80;99.90;;;;;;4980964;28;20038;-72
2021/05/03 01:12:25;;;;;;;43.90;24.63;;;2.90;99.90;;;;;;4998418;28;20053;-72
2021/05/03 01:14:51;;;;;;;37.15;23.83;;;2.90;99.90;;;;;;4997445;28;20034;-71
2021/05/03 01:17:16;;;;;;;37.60;21.08;;;2.80;99.90;;;;;;4998027;28;20027;-72
2021/05/03 01:19:42;;;;;;;36.38;23.35;;;2.80;99.90;;;;;;4998318;28;20053;-73
2021/05/03 01:22:08;;;;;;;38.22;21.98;;;2.80;99.90;;;;;;4998388;28;20536;-72
2021/05/03 01:24:34;;;;;;;38.08;22.95;;;2.80;99.90;;;;;;4997565;28;20056;-73
2021/05/03 01:26:59;;;;;;;38.70;24.40;;;2.80;99.90;;;;;;4998227;28;20104;-72
2021/05/03 01:29:25;;;;;;;40.72;23.45;;;2.80;99.90;;;;;;4998175;28;20038;-71
2021/05/03 01:31:53;;;;;;;39.85;23.30;;;2.80;99.90;;;;;;4998094;28;20045;-72
2021/05/03 01:34:19;;;;;;;43.40;26.13;;;2.80;99.90;;;;;;4997583;28;20077;-72
2021/05/03 01:36:47;;;;;;;46.33;27.30;;;2.80;99.90;;;;;;4998013;28;20024;-71
2021/05/03 01:39:15;;;;;;;49.45;26.98;;;2.80;99.90;;;;;;4980762;28;20027;-73
2021/05/03 01:41:41;;;;;;;49.35;29.05;;;2.70;99.90;;;;;;4998116;28;20670;-73
2021/05/03 01:44:08;;;;;;;45.47;27.10;;;2.70;99.90;;;;;;4977776;28;20055;-73
2021/05/03 01:46:35;;;;;;;53.92;28.33;;;2.70;99.90;;;;;;4978559;28;20165;-72
2021/05/03 01:49:03;;;;;;;46.38;26.85;;;2.70;99.90;;;;;;4961101;28;20030;-73
2021/05/03 01:51:30;;;;;;;50.55;28.23;;;2.60;99.90;;;;;;4978672;28;20023;-74
2021/05/03 01:53:57;;;;;;;59.53;30.50;;;2.60;99.90;;;;;;4978015;28;20055;-72
2021/05/03 01:56:26;;;;;;;57.78;29.67;;;2.50;99.90;;;;;;4978514;28;20544;-73
2021/05/03 01:58:52;;;;;;;59.25;29.95;;;2.50;99.90;;;;;;4978042;28;20019;-72
2021/05/03 02:01:19;;;;;;;55.97;30.33;;;2.50;99.90;;;;;;4978490;28;20023;-73
2021/05/03 02:03:45;;;;;;;56.65;30.73;;;2.50;99.90;;;;;;4977835;28;20109;-73
2021/05/03 02:06:13;;;;;;;37.08;24.20;;;2.40;99.90;;;;;;4976364;28;20427;-71
2021/05/03 02:08:38;;;;;;;40.10;23.05;;;2.40;99.90;;;;;;5052513;23;20446;-70
2021/05/03 02:11:04;;;;;;;42.53;25.30;;;2.40;99.90;;;;;;5037323;28;20057;-72
2021/05/03 02:13:30;;;;;;;45.92;24.60;;;2.50;99.90;;;;;;5017346;28;20054;-71
2021/05/03 02:15:56;;;;;;;40.05;24.67;;;2.50;99.90;;;;;;5014555;28;20014;-71
2021/05/03 02:18:21;;;;;;;43.40;24.27;;;2.50;99.90;;;;;;5014381;28;20026;-70
2021/05/03 02:20:47;;;;;;;52.22;26.10;;;2.40;99.90;;;;;;4996855;28;20026;-71
2021/05/03 02:23:14;;;;;;;45.05;25.13;;;2.40;99.90;;;;;;5013529;28;20076;-72
2021/05/03 02:25:40;;;;;;;53.13;26.77;;;2.40;99.90;;;;;;5014353;28;20030;-71
2021/05/03 02:28:05;;;;;;;47.05;27.15;;;2.30;99.90;;;;;;5014288;28;20033;-70
2021/05/03 02:30:31;;;;;;;50.17;27.70;;;2.50;99.90;;;;;;5014112;28;20076;-71
2021/05/03 02:32:57;;;;;;;54.97;29.30;;;2.40;99.90;;;;;;5013524;28;20033;-70
2021/05/03 02:35:24;;;;;;;56.03;29.58;;;2.40;99.90;;;;;;5014114;28;20037;-70
2021/05/03 02:37:54;;;;;;;55.92;29.20;;;2.40;99.90;;;;;;5014044;28;20067;-70
2021/05/03 02:40:20;;;;;;;51.58;28.10;;;2.30;99.90;;;;;;5014257;28;20093;-72
2021/05/03 02:42:49;;;;;;;49.88;27.38;;;2.40;99.90;;;;;;5013302;28;20034;-71
2021/05/03 02:45:16;;;;;;;54.03;27.52;;;2.40;99.90;;;;;;5013866;28;20038;-72
2021/05/03 02:47:42;;;;;;;46.35;26.58;;;2.30;99.90;;;;;;5013900;28;20029;-71
2021/05/03 02:50:09;;;;;;;47.53;26.48;;;2.30;99.90;;;;;;5014003;28;20021;-71
2021/05/03 02:52:35;;;;;;;54.53;29.80;;;2.30;99.90;;;;;;5013669;28;20105;-70
2021/05/03 02:55:01;;;;;;;42.88;26.48;;;2.30;99.90;;;;;;5013253;28;20037;-70
2021/05/03 02:57:26;;;;;;;53.78;28.65;;;2.30;99.90;;;;;;5013888;28;20018;-70
2021/05/03 02:59:52;;;;;;;50.38;27.25;;;2.20;99.90;;;;;;5013948;28;20097;-70
2021/05/03 03:02:18;;;;;;;41.47;25.13;;;2.30;99.90;;;;;;5013733;28;20072;-70
2021/05/03 03:04:43;;;;;;;46.40;25.98;;;2.40;99.90;;;;;;5014640;28;20057;-70
2021/05/03 03:07:09;;;;;;;44.53;26.17;;;2.30;99.90;;;;;;5015358;28;20033;-70
2021/05/03 03:09:35;;;;;;;46.05;27.10;;;2.30;99.90;;;;;;5014523;28;20040;-70
2021/05/03 03:12:01;;;;;;;52.90;28.02;;;2.20;99.90;;;;;;5013662;28;20052;-70
2021/05/03 03:14:27;;;;;;;52.55;28.38;;;2.20;99.90;;;;;;5013907;28;20026;-70
2021/05/03 03:16:53;;;;;;;49.92;28.52;;;2.20;99.90;;;;;;5015510;28;20073;-71
2021/05/03 03:19:18;;;;;;;51.28;29.27;;;2.20;99.90;;;;;;5015682;28;20030;-70
2021/05/03 03:21:44;;;;;;;50.50;28.75;;;2.20;99.90;;;;;;4996845;28;20026;-71
2021/05/03 03:24:11;;;;;;;49.47;27.80;;;2.10;99.90;;;;;;4994757;28;20034;-72
2021/05/03 03:26:37;;;;;;;61.65;29.27;;;2.10;99.90;;;;;;5013140;28;20037;-71
2021/05/03 03:29:04;;;;;;;53.05;28.35;;;2.10;99.90;;;;;;5013197;28;20026;-71
2021/05/03 03:31:30;;;;;;;58.20;28.92;;;2.00;99.90;;;;;;5013302;28;20052;-72
2021/05/03 03:33:56;;;;;;;50.13;28.05;;;2.00;99.90;;;;;;5012602;28;20108;-70
2021/05/03 03:36:21;;;;;;;50.55;27.30;;;2.00;99.90;;;;;;5013248;28;20022;-71
2021/05/03 03:38:47;;;;;;;59.28;29.33;;;2.00;99.90;;;;;;5012969;28;20032;-71
2021/05/03 03:41:12;;;;;;;49.20;27.17;;;1.90;99.90;;;;;;5013327;28;20617;-70
2021/05/03 03:43:38;;;;;;;52.65;28.83;;;1.90;99.90;;;;;;5012526;28;20036;-70
2021/05/03 03:46:04;;;;;;;48.40;26.35;;;1.80;99.90;;;;;;5013172;28;20392;-70
2021/05/03 03:48:30;;;;;;;49.80;28.70;;;1.90;99.90;;;;;;5012868;28;20492;-71
2021/05/03 03:50:55;;;;;;;53.75;26.92;;;1.90;99.90;;;;;;5012878;28;20026;-70
2021/05/03 03:53:21;;;;;;;49.38;27.88;;;1.90;99.90;;;;;;5011975;28;20388;-70
2021/05/03 03:55:47;;;;;;;47.78;27.83;;;1.90;99.90;;;;;;5012486;28;20486;-71
2021/05/03 03:58:12;;;;;;;44.30;26.02;;;1.90;99.90;;;;;;5012810;28;20022;-71
2021/05/03 04:00:38;;;;;;;48.42;26.77;;;1.80;99.90;;;;;;5012819;28;20022;-70
2021/05/03 04:03:09;;;;;;;52.80;29.15;;;1.80;99.90;;;;;;5012187;28;20531;-70
2021/05/03 04:06:01;;;;;;;54.70;30.43;;;1.80;99.90;;;;;;5012557;28;20113;-70
2021/05/03 04:08:42;;;;;;;54.93;28.17;;;1.70;99.90;;;;;;5012369;28;20104;-70
2021/05/03 04:13:58;;;;;;;70.13;33.47;;;1.80;99.90;;;;;;5011594;28;20068;-69
2021/05/03 04:24:50;;;;;;;53.92;25.80;;;1.90;99.90;;;;;;4996310;28;20061;-70
2021/05/03 04:27:15;;;;;;;61.17;30.73;;;1.90;99.90;;;;;;5029143;28;20100;-69
2021/05/03 04:29:41;;;;;;;72.07;34.25;;;1.90;99.90;;;;;;5029907;28;20086;-70
2021/05/03 04:32:07;;;;;;;66.20;33.90;;;1.90;99.90;;;;;;5030236;28;20029;-70
2021/05/03 04:34:32;;;;;;;63.55;32.67;;;2.00;99.90;;;;;;5029836;28;20475;-69
2021/05/03 04:36:58;;;;;;;56.08;31.05;;;2.00;99.90;;;;;;5012342;28;20053;-70
2021/05/03 04:39:24;;;;;;;72.25;34.97;;;2.00;99.90;;;;;;5030331;28;20700;-70
2021/05/03 04:41:49;;;;;;;69.85;36.65;;;1.90;99.90;;;;;;4999454;28;20027;-71
2021/05/03 04:44:15;;;;;;;62.97;35.40;;;1.90;99.90;;;;;;5028782;28;20448;-70
2021/05/03 04:46:40;;;;;;;59.97;33.35;;;1.90;99.90;;;;;;5011621;28;20120;-72
2021/05/03 04:49:06;;;;;;;65.20;32.63;;;2.10;99.90;;;;;;5029904;28;20033;-70
2021/05/03 04:51:32;;;;;;;53.97;33.15;;;2.20;99.90;;;;;;5030008;28;20021;-71
2021/05/03 04:53:57;;;;;;;61.03;31.52;;;2.30;99.90;;;;;;5024068;28;20052;-72
2021/05/03 04:56:23;;;;;;;58.63;33.08;;;2.30;99.90;;;;;;5009778;28;20466;-73
2021/05/03 04:58:48;;;;;;;62.78;33.58;;;2.30;99.90;;;;;;5010140;28;20029;-73
2021/05/03 05:01:14;;;;;;;60.97;33.13;;;2.40;99.90;;;;;;5009938;28;20029;-70
2021/05/03 05:03:40;;;;;;;59.70;32.83;;;2.40;99.90;;;;;;5008902;28;20069;-69
2021/05/03 05:06:05;;;;;;;52.08;32.38;;;2.40;99.90;;;;;;5009665;28;20026;-72
2021/05/03 05:08:31;;;;;;;49.15;31.63;;;2.50;99.90;;;;;;5009653;28;20511;-71
2021/05/03 05:10:57;;;;;;;46.53;28.02;;;2.60;99.90;;;;;;5012807;28;20026;-70
2021/05/03 05:13:23;;;;;;;46.88;28.05;;;2.60;99.90;;;;;;5012341;28;20428;-71
2021/05/03 05:15:48;;;;;;;46.65;28.50;;;2.70;99.90;;;;;;5010073;28;20078;-70
2021/05/03 05:18:14;;;;;;;45.17;29.33;;;2.70;99.90;;;;;;5012321;28;20082;-70
2021/05/03 05:20:40;;;;;;;40.33;26.52;;;2.70;99.90;;;;;;4991670;28;20037;-70
2021/05/03 05:23:06;;;;;;;37.47;27.05;;;2.70;99.90;;;;;;5008384;28;20029;-70
2021/05/03 05:25:33;;;;;;;34.35;25.35;;;2.80;99.90;;;;;;5009036;28;20029;-69
2021/05/03 05:27:59;;;;;;;38.78;26.55;;;2.80;99.90;;;;;;5008690;28;20120;-69
2021/05/03 05:30:25;;;;;;;40.55;26.40;;;2.80;99.90;;;;;;5009295;28;20492;-69
2021/05/03 05:32:51;;;;;;;41.33;25.58;;;3.00;99.90;;;;;;5008851;28;20113;-71
2021/05/03 05:35:17;;;;;;;38.90;25.98;;;3.10;99.90;;;;;;5009186;28;20110;-70
2021/05/03 05:37:42;;;;;;;38.08;26.00;;;3.10;99.90;;;;;;5009404;28;20030;-69
2021/05/03 05:40:08;;;;;;;40.40;26.85;;;3.20;99.90;;;;;;5008355;28;20090;-70
2021/05/03 05:42:34;;;;;;;38.58;27.40;;;3.30;99.90;;;;;;5009791;28;20127;-69
2021/05/03 05:45:00;;;;;;;41.83;28.27;;;3.40;99.90;;;;;;5008703;28;20477;-72
2021/05/03 05:47:26;;;;;;;43.20;28.65;;;3.50;99.90;;;;;;5011449;28;20060;-71
2021/05/03 05:49:51;;;;;;;43.22;25.95;;;3.60;99.90;;;;;;5027976;28;20029;-72
2021/05/03 05:52:17;;;;;;;38.10;27.23;;;3.70;99.90;;;;;;5032602;28;20047;-70
2021/05/03 05:54:43;;;;;;;42.13;28.00;;;3.70;99.90;;;;;;5030638;28;20087;-70
2021/05/03 05:57:08;;;;;;;39.55;27.70;;;3.90;99.90;;;;;;5030523;28;20020;-72
2021/05/03 05:59:34;;;;;;;40.95;26.48;;;4.00;99.90;;;;;;5033386;28;20021;-70
2021/05/03 06:02:00;;;;;;;36.40;25.48;;;4.00;99.90;;;;;;5027611;28;20026;-71
2021/05/03 06:04:25;;;;;;;40.33;27.02;;;4.20;99.90;;;;;;5024101;28;20029;-74
2021/05/03 06:06:52;;;;;;;37.55;26.10;;;4.40;99.90;;;;;;5034093;28;20029;-71
2021/05/03 06:09:18;;;;;;;39.20;26.50;;;4.40;99.90;;;;;;5039768;28;20030;-71
2021/05/03 06:11:44;;;;;;;43.47;28.42;;;4.70;99.90;;;;;;5043318;28;20041;-71
2021/05/03 06:14:10;;;;;;;34.78;26.42;;;4.70;99.90;;;;;;5045887;28;20025;-72
2021/05/03 06:16:36;;;;;;;36.47;25.75;;;4.90;99.90;;;;;;5032711;28;20022;-72
2021/05/03 06:19:02;;;;;;;34.58;24.33;;;5.00;99.90;;;;;;5051426;28;20029;-71
2021/05/03 06:21:27;;;;;;;31.52;22.23;;;5.20;99.90;;;;;;5036633;28;20488;-71
2021/05/03 06:23:53;;;;;;;28.40;21.15;;;5.40;99.90;;;;;;5016013;28;20037;-71
2021/05/03 06:26:19;;;;;;;32.55;23.17;;;5.50;99.90;;;;;;5034121;28;20055;-73
2021/05/03 06:28:45;;;;;;;28.95;21.80;;;5.50;99.90;;;;;;5034035;28;20448;-70
2021/05/03 06:31:10;;;;;;;26.85;20.92;;;5.60;99.90;;;;;;5033823;28;20033;-72
2021/05/03 06:33:36;;;;;;;29.98;20.00;;;5.70;99.90;;;;;;5015754;28;20036;-71
2021/05/03 06:36:03;;;;;;;23.70;19.90;;;5.80;99.90;;;;;;5024445;28;20041;-71
2021/05/03 06:38:29;;;;;;;24.27;19.27;;;5.90;99.90;;;;;;5013699;28;20030;-71
2021/05/03 06:40:55;;;;;;;23.58;19.13;;;6.00;99.90;;;;;;5013258;28;20030;-72
2021/05/03 06:43:20;;;;;;;26.88;19.88;;;6.20;99.90;;;;;;5013296;28;20057;-71
2021/05/03 06:45:46;;;;;;;22.00;16.98;;;6.30;99.90;;;;;;4996109;28;20188;-70
2021/05/03 06:48:12;;;;;;;20.80;16.58;;;6.30;99.90;;;;;;5012994;28;20076;-72
2021/05/03 06:50:43;;;;;;;20.83;17.10;;;6.30;99.90;;;;;;5026232;28;20033;-71
2021/05/03 06:53:09;;;;;;;17.25;14.18;;;6.40;99.90;;;;;;5022661;28;20025;-72
2021/05/03 06:55:35;;;;;;;18.90;15.93;;;6.40;99.90;;;;;;5013408;28;20025;-71
2021/05/03 06:58:00;;;;;;;18.80;15.43;;;6.50;99.90;;;;;;5012019;28;20106;-72
2021/05/03 07:00:26;;;;;;;21.05;15.10;;;6.60;99.90;;;;;;5014124;28;20057;-72
2021/05/03 07:02:52;;;;;;;15.75;13.35;;;6.70;99.90;;;;;;5012813;28;20060;-72
2021/05/03 07:05:18;;;;;;;16.90;13.05;;;6.90;99.90;;;;;;5013706;28;20021;-72
2021/05/03 07:07:44;;;;;;;17.88;14.35;;;7.00;99.90;;;;;;5013172;28;20037;-71
2021/05/03 07:10:11;;;;;;;19.10;13.18;;;7.10;99.90;;;;;;5013107;28;20022;-72
2021/05/03 07:12:48;;;;;;;15.75;12.30;;;7.20;99.90;;;;;;4995133;28;20040;-71
2021/05/03 07:15:15;;;;;;;16.02;12.60;;;7.40;99.90;;;;;;5012653;28;20356;-72
2021/05/03 07:17:41;;;;;;;14.50;11.90;;;7.50;99.90;;;;;;5012970;28;20061;-71
2021/05/03 07:20:09;;;;;;;13.88;11.93;;;7.50;99.90;;;;;;5013819;28;20049;-72
2021/05/03 07:22:36;;;;;;;16.02;12.13;;;7.60;99.90;;;;;;5012860;28;20097;-72
2021/05/03 07:25:07;;;;;;;16.25;12.82;;;7.60;99.90;;;;;;5013153;28;20038;-71
2021/05/03 07:27:34;;;;;;;14.23;11.90;;;7.70;99.90;;;;;;4995464;28;20026;-71
2021/05/03 07:30:00;;;;;;;20.05;11.88;;;7.80;99.90;;;;;;5015459;28;20049;-71
2021/05/03 07:32:26;;;;;;;16.45;11.55;;;7.80;99.90;;;;;;5012979;28;20033;-71
2021/05/03 07:34:52;;;;;;;13.18;11.05;;;8.00;99.90;;;;;;5012458;28;20105;-71
2021/05/03 07:37:18;;;;;;;13.95;10.93;;;8.30;99.90;;;;;;5012070;28;20029;-72
2021/05/03 07:39:44;;;;;;;12.35;10.88;;;8.50;99.90;;;;;;5013173;28;20026;-71
2021/05/03 07:42:10;;;;;;;13.23;10.35;;;8.80;99.90;;;;;;5012882;28;20036;-71
2021/05/03 07:44:36;;;;;;;12.15;10.32;;;9.00;99.90;;;;;;5012455;28;20045;-72
2021/05/03 07:47:03;;;;;;;13.27;11.25;;;9.20;99.90;;;;;;5014217;28;20365;-71
2021/05/03 07:49:29;;;;;;;13.85;10.75;;;9.40;99.90;;;;;;5014533;28;20034;-71
2021/05/03 07:51:55;;;;;;;12.85;11.43;;;9.70;99.90;;;;;;5012589;28;20080;-71
2021/05/03 07:54:20;;;;;;;12.55;10.57;;;9.90;99.90;;;;;;5012400;28;20037;-71
2021/05/03 07:56:47;;;;;;;11.80;9.88;;;10.20;99.90;;;;;;5013336;28;20052;-72
2021/05/03 07:59:13;;;;;;;9.70;8.70;;;10.50;99.90;;;;;;5012413;28;20399;-72
2021/05/03 08:01:39;;;;;;;9.75;8.75;;;10.50;99.90;;;;;;4994958;28;20030;-71
2021/05/03 08:04:05;;;;;;;11.45;7.85;;;10.20;99.90;;;;;;5011912;28;20033;-71
2021/05/03 08:06:31;;;;;;;10.88;8.55;;;10.20;99.90;;;;;;4991754;28;20052;-72
2021/05/03 08:08:59;;;;;;;11.93;8.32;;;10.10;99.90;;;;;;5010648;28;20076;-71
2021/05/03 08:11:26;;;;;;;10.32;7.97;;;10.00;99.90;;;;;;5028033;23;20050;-69
2021/05/03 08:13:52;;;;;;;8.77;7.85;;;10.40;99.90;;;;;;5006800;28;20394;-76
2021/05/03 08:16:19;;;;;;;8.55;7.65;;;10.90;99.90;;;;;;5025681;28;20022;-77
2021/05/03 08:18:45;;;;;;;7.43;6.72;;;11.00;99.90;;;;;;5032953;28;20036;-75
2021/05/03 08:21:11;;;;;;;8.57;7.22;;;11.10;99.90;;;;;;5011622;28;20477;-71
2021/05/03 08:23:39;;;;;;;6.75;6.05;;;11.50;99.90;;;;;;5012591;28;20147;-71
2021/05/03 08:26:05;;;;;;;7.65;6.88;;;11.80;99.90;;;;;;5013454;28;20018;-73
2021/05/03 08:28:31;;;;;;;7.45;6.75;;;11.50;99.90;;;;;;5016573;28;20413;-76
2021/05/03 08:30:57;;;;;;;8.05;7.25;;;10.90;99.90;;;;;;4996527;28;20427;-76
2021/05/03 08:33:23;;;;;;;7.70;5.97;;;11.10;99.90;;;;;;5014674;28;20116;-74
2021/05/03 08:35:49;;;;;;;6.53;5.95;;;12.10;99.90;;;;;;5013813;28;20076;-75
2021/05/03 08:38:18;;;;;;;6.13;5.53;;;12.30;99.90;;;;;;5013634;28;20106;-76
2021/05/03 08:40:47;;;;;;;5.88;5.38;;;12.90;99.90;;;;;;5014255;28;20084;-73
2021/05/03 08:43:12;;;;;;;6.25;5.75;;;12.10;99.90;;;;;;5013950;28;20088;-76
2021/05/03 08:45:40;;;;;;;9.20;7.05;;;11.70;99.90;;;;;;4996668;28;20403;-75
2021/05/03 08:53:43;;;;;;;7.07;5.85;;;13.20;99.90;;;;;;4994252;28;20042;-73
2021/05/03 08:56:10;;;;;;;6.65;5.72;;;12.30;99.90;;;;;;5011085;28;20022;-75
2021/05/03 08:58:37;;;;;;;6.40;5.80;;;12.40;99.90;;;;;;5010635;28;20033;-73
2021/05/03 09:01:04;;;;;;;6.38;5.80;;;11.60;99.90;;;;;;4994761;28;20032;-74
2021/05/03 09:03:30;;;;;;;7.15;6.38;;;11.30;99.90;;;;;;5012887;28;20458;-76
2021/05/03 09:06:03;;;;;;;8.85;7.22;;;11.30;99.90;;;;;;5011639;28;20033;-77
2021/05/03 09:08:30;;;;;;;9.32;6.45;;;11.20;99.90;;;;;;5002346;28;20057;-73
2021/05/03 09:10:56;;;;;;;6.57;5.97;;;11.00;99.90;;;;;;5014342;28;20116;-75
2021/05/03 09:13:34;;;;;;;6.47;5.63;;;11.60;99.90;;;;;;5031253;28;20037;-74
2021/05/03 09:16:23;;;;;;;5.97;5.38;;;12.10;99.90;;;;;;5031318;28;20029;-73
2021/05/03 09:18:51;;;;;;;6.65;5.72;;;12.60;99.90;;;;;;5011982;28;20503;-76
2021/05/03 09:21:29;;;;;;;6.93;6.07;;;12.60;99.90;;;;;;5011936;28;20105;-74
2021/05/03 09:24:07;;;;;;;6.40;5.60;;;12.90;99.90;;;;;;4996361;28;20025;-74
2021/05/03 09:26:35;;;;;;;6.10;5.50;;;12.70;99.80;;;;;;4996536;28;20023;-75
2021/05/03 09:29:00;;;;;;;8.63;5.40;;;12.20;99.90;;;;;;5020577;28;20056;-75
2021/05/03 09:31:26;;;;;;;6.55;4.75;;;12.20;99.90;;;;;;5019559;28;20430;-75
2021/05/03 09:33:52;;;;;;;4.90;4.50;;;11.90;99.10;;;;;;5031948;28;20030;-73
2021/05/03 09:36:21;;;;;;;5.90;4.60;;;12.20;99.80;;;;;;5016273;28;20034;-74
2021/05/03 09:38:50;;;;;;;8.07;4.88;;;12.50;97.70;;;;;;4999801;28;20049;-75
2021/05/03 09:41:23;;;;;;;10.25;4.68;;;12.80;98.80;;;;;;5015636;28;20029;-73
2021/05/03 09:43:53;;;;;;;7.03;4.20;;;13.60;96.60;;;;;;5026066;28;20022;-74
2021/05/03 09:46:32;;;;;;;5.05;3.17;;;12.80;94.50;;;;;;5032148;28;20101;-75
2021/05/03 09:49:10;;;;;;;4.50;3.20;;;13.30;95.20;;;;;;5015450;28;20018;-71
2021/05/03 09:51:49;;;;;;;4.30;2.90;;;13.70;87.90;;;;;;4997698;28;20029;-75
2021/05/03 09:54:17;;;;;;;5.60;3.13;;;13.70;90.10;;;;;;5015779;28;20018;-72
2021/05/03 09:56:47;;;;;;;4.15;3.78;;;14.20;97.20;;;;;;4998081;28;20468;-75
2021/05/03 09:59:27;;;;;;;4.18;3.00;;;14.60;92.80;;;;;;5014309;28;20032;-75
2021/05/03 10:02:15;;;;;;;3.05;2.85;;;14.60;79.70;;;;;;5012159;28;20049;-75
2021/05/03 10:05:21;;;;;;;2.78;2.45;;;13.50;82.10;;;;;;5016861;28;20033;-76
2021/05/03 10:07:53;;;;;;;3.03;2.83;;;13.20;79.60;;;;;;5032440;28;20448;-75
2021/05/03 10:10:23;;;;;;;3.45;3.10;;;13.20;83.30;;;;;;5036887;28;20036;-76
2021/05/03 10:12:50;;;;;;;5.97;3.28;;;13.60;86.00;;;;;;5007229;28;20038;-75
2021/05/03 10:15:19;;;;;;;6.75;3.50;;;13.50;82.20;;;;;;5015746;28;20022;-75
2021/05/03 10:17:45;;;;;;;6.30;3.83;;;13.70;80.70;;;;;;5015927;28;20029;-77
2021/05/03 10:20:13;;;;;;;3.83;3.00;;;13.70;78.00;;;;;;5034796;28;20085;-76
2021/05/03 10:22:39;;;;;;;3.60;3.30;;;13.20;84.70;;;;;;5034776;28;20028;-74
2021/05/03 10:25:09;;;;;;;3.20;2.88;;;13.20;85.30;;;;;;5035555;28;20040;-74
2021/05/03 10:27:40;;;;;;;3.88;2.90;;;13.40;86.50;;;;;;5017065;28;20140;-73
2021/05/03 10:30:23;;;;;;;4.97;3.28;;;13.50;83.80;;;;;;5035916;28;20029;-76
2021/05/03 10:32:58;;;;;;;3.10;2.80;;;13.10;83.40;;;;;;5035756;28;20053;-77
2021/05/03 10:35:26;;;;;;;4.13;3.25;;;12.80;85.10;;;;;;5035753;28;20049;-75
2021/05/03 10:37:54;;;;;;;3.13;2.60;;;12.70;85.80;;;;;;5034914;28;20031;-75
2021/05/03 10:40:19;;;;;;;3.50;2.83;;;13.50;89.30;;;;;;5016174;28;20549;-73
2021/05/03 10:43:14;;;;;;;3.38;3.00;;;15.40;87.90;;;;;;5023566;28;20022;-74
2021/05/03 10:51:09;;;;;;;3.63;3.20;;;13.80;76.80;;;;;;4996702;28;20307;-74
2021/05/03 10:53:40;;;;;;;3.08;2.88;;;13.50;76.90;;;;;;4992624;28;20145;-74
2021/05/03 10:56:12;;;;;;;2.55;2.35;;;13.40;76.70;;;;;;5010772;28;20025;-74
2021/05/03 10:58:56;;;;;;;;;;;13.50;80.60;;;;;;5026431;28;20113;-74
2021/05/03 11:01:22;;;;;;;2.33;1.90;;;13.40;77.90;;;;;;5014970;28;19905;-73
2021/05/03 11:03:57;;;;;;;3.83;2.55;;;14.50;75.00;;;;;;4996590;28;20114;-74
2021/05/03 11:06:44;;;;;;;2.47;2.28;;;14.70;73.20;;;;;;4998490;28;20026;-74
2021/05/03 11:11:57;;;;;;;3.25;2.10;;;15.90;72.60;;;;;;5014601;28;20180;-75
2021/05/03 11:14:23;;;;;;;2.03;1.92;;;15.90;71.20;;;;;;5013523;28;20053;-75
2021/05/03 11:16:52;;;;;;;4.35;4.00;;;15.00;71.30;;;;;;4996210;28;20038;-74
2021/05/03 11:22:20;;;;;;;5.90;2.45;;;15.10;71.60;;;;;;5013175;28;20472;-75
2021/05/03 11:25:08;;;;;;;2.40;2.20;;;15.10;73.90;;;;;;5013898;28;20034;-75
2021/05/03 11:30:24;;;;;;;2.60;2.40;;;15.40;71.20;;;;;;5012989;28;20121;-76
2021/05/03 11:32:56;;;;;;;2.58;2.38;;;15.90;70.40;;;;;;5012190;28;20065;-75
2021/05/03 11:38:11;;;;;;;2.00;1.75;;;17.60;67.30;;;;;;5014608;28;20391;-74
2021/05/03 11:46:12;;;;;;;2.70;2.33;;;16.00;70.20;;;;;;5012311;28;20025;-76
2021/05/03 11:48:38;;;;;;;2.28;2.08;;;15.70;67.70;;;;;;5012318;28;20014;-75
2021/05/03 11:51:09;;;;;;;2.22;1.70;;;16.00;70.80;;;;;;5013206;28;20030;-77
2021/05/03 11:53:41;;;;;;;2.45;1.83;;;18.60;66.70;;;;;;5012269;28;20540;-73
2021/05/03 11:56:27;;;;;;;2.40;1.60;;;20.50;56.40;;;;;;5026962;28;20092;-75
2021/05/03 11:58:57;;;;;;;1.75;1.50;;;20.80;54.40;;;;;;5023321;28;20253;-75
2021/05/03 12:01:26;;;;;;;4.90;1.95;;;20.00;56.20;;;;;;5013229;28;20030;-76
2021/05/03 12:03:58;;;;;;;2.22;2.10;;;18.00;57.20;;;;;;5011429;28;20428;-72
2021/05/03 12:06:40;;;;;;;6.63;1.67;;;17.80;60.50;;;;;;5010763;28;20029;-71
2021/05/03 12:09:14;;;;;;;2.80;1.90;;;19.30;58.00;;;;;;5011395;28;20036;-74
2021/05/03 12:11:58;;;;;;;2.78;1.50;;;18.30;58.50;;;;;;4977574;28;20022;-76
2021/05/03 12:14:49;;;;;;;1.98;1.70;;;16.50;60.40;;;;;;5011038;28;20550;-74
2021/05/03 12:17:23;;;;;;;3.45;2.20;;;16.30;62.40;;;;;;5012553;28;20029;-73
2021/05/03 12:19:54;;;;;;;2.20;2.00;;;16.50;63.00;;;;;;4995223;28;20109;-72
2021/05/03 12:22:21;;;;;;;1.95;1.70;;;16.40;62.00;;;;;;5014124;28;20034;-74
2021/05/03 12:24:47;;;;;;;2.50;1.50;;;18.30;59.80;;;;;;5012747;28;20105;-74
2021/05/03 12:27:14;;;;;;;3.95;2.30;;;19.30;57.50;;;;;;5014280;28;20080;-72
2021/05/03 12:29:46;;;;;;;1.73;1.52;;;19.20;57.50;;;;;;5014165;28;20491;-74
2021/05/03 12:32:17;;;;;;;2.55;1.85;;;19.60;54.60;;;;;;5013618;28;20030;-74
2021/05/03 12:34:50;;;;;;;1.75;1.50;;;19.20;57.20;;;;;;5012698;28;20104;-73
2021/05/03 12:37:24;;;;;;;4.22;1.50;;;18.70;57.90;;;;;;5013816;28;20014;-73
2021/05/03 12:39:55;;;;;;;1.80;1.70;;;18.80;55.70;;;;;;5013442;28;20030;-74
2021/05/03 12:42:22;;;;;;;1.30;1.20;;;18.30;56.10;;;;;;5013124;28;20045;-73
2021/05/03 12:44:54;;;;;;;2.55;1.63;;;18.60;57.80;;;;;;4995276;28;20145;-73
2021/05/03 12:50:18;;;;;;;1.65;1.50;;;19.50;56.30;;;;;;5013267;28;20033;-73
2021/05/03 12:55:55;;;;;;;1.65;1.50;;;19.10;55.40;;;;;;5021863;28;20055;-74
2021/05/03 13:01:21;;;;;;;1.90;1.30;;;21.30;52.70;;;;;;5011307;28;19916;-74
2021/05/03 13:22:33;;;;;;;3.25;1.60;;;22.80;48.20;;;;;;5010351;28;20053;-74
2021/05/03 13:29:13;;;;;;;3.55;1.80;;;19.70;52.70;;;;;;5011086;28;20025;-74
2021/05/03 13:31:41;;;;;;;1.25;1.20;;;19.70;52.30;;;;;;5011584;28;20022;-77
2021/05/03 13:34:09;;;;;;;1.75;1.40;;;19.40;49.10;;;;;;5010835;28;20018;-78
2021/05/03 13:36:50;;;;;;;;;;;20.90;49.90;;;;;;5012889;28;20897;-78
2021/05/03 13:39:16;;;;;;;1.60;1.50;;;20.80;50.70;;;;;;5015888;28;19949;-78
2021/05/03 13:41:44;;;;;;;2.03;1.50;;;19.70;49.70;;;;;;5000312;28;20546;-77
2021/05/03 13:44:12;;;;;;;1.83;1.70;;;20.40;50.60;;;;;;5001900;28;20072;-75
2021/05/03 13:46:38;;;;;;;2.15;1.50;;;20.10;48.20;;;;;;5022067;28;20033;-73
2021/05/03 13:49:05;;;;;;;2.78;1.67;;;19.30;48.30;;;;;;5013622;28;20072;-81
2021/05/03 13:51:31;;;;;;;3.15;1.50;;;19.20;53.80;;;;;;5013318;28;20026;-78
2021/05/03 13:53:58;;;;;;;3.80;1.80;;;18.00;52.80;;;;;;5009823;28;20046;-76
2021/05/03 13:56:25;;;;;;;2.03;1.67;;;17.50;51.00;;;;;;5016573;28;20068;-75